createdAt,value
2023-03-12T00:01:16.787Z,12.82
2023-03-12T00:03:43.717Z,9.70
2023-03-12T00:06:11.210Z,12.80
2023-03-12T00:08:38.100Z,13.23
2023-03-12T00:11:12.925Z,10.43
2023-03-12T00:13:39.940Z,7.93
2023-03-12T00:16:11.797Z,15.45
2023-03-12T00:18:38.645Z,11.23
2023-03-12T00:21:05.456Z,13.23
2023-03-12T00:23:32.022Z,14.00
2023-03-12T00:26:03.425Z,15.60
2023-03-12T00:28:30.510Z,14.70
2023-03-12T00:30:58.427Z,14.55
2023-03-12T00:33:26.329Z,12.05
2023-03-12T00:35:53.579Z,9.60
2023-03-12T00:38:20.153Z,14.13
2023-03-12T00:40:46.660Z,12.38
2023-03-12T00:43:13.687Z,17.38
2023-03-12T00:45:40.174Z,10.32
2023-03-12T00:48:09.556Z,13.32
2023-03-12T00:50:36.104Z,16.40
2023-03-12T00:53:02.622Z,10.80
2023-03-12T00:55:29.203Z,16.85
2023-03-12T00:57:55.781Z,14.82
2023-03-12T01:00:22.571Z,15.10
2023-03-12T01:02:49.097Z,12.88
2023-03-12T01:05:15.846Z,11.43
2023-03-12T01:07:43.004Z,14.10
2023-03-12T01:10:10.440Z,12.50
2023-03-12T01:12:37.161Z,15.02
2023-03-12T01:15:04.658Z,10.15
2023-03-12T01:17:31.182Z,14.15
2023-03-12T01:19:57.873Z,16.58
2023-03-12T01:22:24.481Z,20.23
2023-03-12T01:24:50.996Z,15.93
2023-03-12T01:27:17.520Z,10.73
2023-03-12T01:29:44.289Z,19.45
2023-03-12T01:32:10.892Z,14.32
2023-03-12T01:34:37.574Z,11.80
2023-03-12T01:37:04.118Z,10.00
2023-03-12T01:39:30.693Z,13.20
2023-03-12T01:41:57.327Z,10.57
2023-03-12T01:44:23.938Z,14.07
2023-03-12T01:46:50.595Z,16.33
2023-03-12T01:49:30.313Z,12.63
2023-03-12T01:51:59.554Z,13.98
2023-03-12T01:54:30.980Z,10.32
2023-03-12T01:56:57.646Z,13.07
2023-03-12T01:59:29.755Z,11.15
2023-03-12T02:01:56.696Z,17.77
2023-03-12T02:04:25.605Z,12.77
2023-03-12T02:07:13.828Z,10.02
2023-03-12T02:12:09.582Z,12.27
2023-03-12T02:14:36.752Z,9.82
2023-03-12T02:17:03.752Z,9.15
2023-03-12T02:19:36.027Z,17.15
2023-03-12T02:22:03.570Z,13.25
2023-03-12T02:24:41.257Z,17.38
2023-03-12T02:27:08.174Z,18.30
2023-03-12T02:29:36.293Z,23.92
2023-03-12T02:32:04.544Z,15.40
2023-03-12T02:34:31.259Z,14.93
2023-03-12T02:36:57.784Z,11.98
2023-03-12T02:39:24.800Z,9.98
2023-03-12T02:41:55.844Z,13.02
2023-03-12T02:44:33.476Z,11.43
2023-03-12T02:47:01.455Z,20.27
2023-03-12T02:49:31.169Z,12.07
2023-03-12T02:51:58.202Z,14.13
2023-03-12T02:54:25.237Z,16.52
2023-03-12T02:56:52.476Z,11.65
2023-03-12T02:59:22.901Z,13.65
2023-03-12T03:01:55.992Z,12.80
2023-03-12T03:04:23.419Z,12.30
2023-03-12T03:06:50.023Z,18.30
2023-03-12T03:09:16.568Z,13.82
2023-03-12T03:11:43.253Z,14.27
2023-03-12T03:14:10.237Z,12.18
2023-03-12T03:16:36.824Z,16.40
2023-03-12T03:19:03.780Z,12.00
2023-03-12T03:21:30.783Z,16.02
2023-03-12T03:23:57.277Z,13.23
2023-03-12T03:26:24.650Z,15.75
2023-03-12T03:28:51.405Z,13.57
2023-03-12T03:31:18.404Z,15.77
2023-03-12T03:33:45.328Z,12.63
2023-03-12T03:36:14.860Z,15.90
2023-03-12T03:38:42.368Z,14.55
2023-03-12T03:41:09.049Z,10.77
2023-03-12T03:43:35.645Z,18.83
2023-03-12T03:46:04.317Z,12.45
2023-03-12T03:48:31.221Z,11.45
2023-03-12T03:51:02.030Z,15.70
2023-03-12T03:53:28.709Z,15.63
2023-03-12T03:55:55.239Z,13.80
2023-03-12T03:58:21.777Z,13.95
2023-03-12T04:00:48.322Z,22.20
2023-03-12T04:03:14.918Z,11.88
2023-03-12T04:05:45.458Z,12.00
2023-03-12T04:08:13.327Z,14.15
2023-03-12T04:10:40.145Z,18.58
2023-03-12T04:13:06.729Z,15.48
2023-03-12T04:15:33.351Z,16.02
2023-03-12T04:17:59.939Z,13.32
2023-03-12T04:20:26.432Z,13.85
2023-03-12T04:22:52.938Z,17.23
2023-03-12T04:25:19.604Z,21.23
2023-03-12T04:27:46.278Z,15.25
2023-03-12T04:30:13.271Z,15.18
2023-03-12T04:32:39.839Z,12.90
2023-03-12T04:35:06.590Z,21.13
2023-03-12T04:37:34.256Z,19.45
2023-03-12T04:40:02.075Z,17.33
2023-03-12T04:42:28.898Z,22.23
2023-03-12T04:44:55.484Z,21.63
2023-03-12T04:47:21.976Z,21.17
2023-03-12T04:49:48.548Z,15.27
2023-03-12T04:52:17.588Z,24.15
2023-03-12T04:54:46.773Z,21.83
2023-03-12T04:57:14.540Z,29.48
2023-03-12T04:59:41.029Z,23.90
2023-03-12T05:02:07.751Z,14.90
2023-03-12T05:04:34.276Z,13.77
2023-03-12T05:07:00.995Z,26.95
2023-03-12T05:09:27.710Z,16.08
2023-03-12T05:11:54.277Z,16.38
2023-03-12T05:14:20.825Z,22.05
2023-03-12T05:16:47.363Z,20.33
2023-03-12T05:19:13.885Z,15.70
2023-03-12T05:21:42.333Z,22.80
2023-03-12T05:24:10.473Z,20.08
2023-03-12T05:26:37.851Z,17.98
2023-03-12T05:29:05.547Z,28.63
2023-03-12T05:31:35.294Z,29.45
2023-03-12T05:34:03.803Z,19.90
2023-03-12T05:36:30.385Z,20.13
2023-03-12T05:38:57.302Z,24.23
2023-03-12T05:41:26.016Z,25.83
2023-03-12T05:43:54.118Z,23.23
2023-03-12T05:46:21.089Z,39.28
2023-03-12T05:48:47.937Z,34.72
2023-03-12T05:51:14.639Z,27.42
2023-03-12T05:53:41.337Z,26.17
2023-03-12T05:56:11.196Z,25.92
2023-03-12T05:58:38.143Z,21.90
2023-03-12T06:01:12.756Z,24.02
2023-03-12T06:03:39.377Z,22.55
2023-03-12T06:06:05.916Z,26.58
2023-03-12T06:08:32.492Z,27.00
2023-03-12T06:10:59.479Z,27.92
2023-03-12T06:13:27.442Z,23.48
2023-03-12T06:15:54.025Z,24.70
2023-03-12T06:18:20.573Z,25.50
2023-03-12T06:20:47.103Z,24.55
2023-03-12T06:23:13.767Z,29.20
2023-03-12T06:25:40.289Z,28.63
2023-03-12T06:28:06.874Z,27.10
2023-03-12T06:30:33.444Z,26.67
2023-03-12T06:32:59.953Z,33.92
2023-03-12T06:35:26.547Z,32.22
2023-03-12T06:37:53.096Z,24.52
2023-03-12T06:40:19.745Z,29.98
2023-03-12T06:42:46.586Z,30.92
2023-03-12T06:45:13.136Z,33.47
2023-03-12T06:47:39.602Z,33.13
2023-03-12T06:50:06.699Z,33.33
2023-03-12T06:52:33.227Z,35.65
2023-03-12T06:54:59.760Z,35.90
2023-03-12T06:57:26.269Z,40.50
2023-03-12T06:59:52.888Z,40.97
2023-03-12T07:02:19.505Z,49.53
2023-03-12T07:04:46.262Z,51.95
2023-03-12T07:07:12.823Z,51.70
2023-03-12T07:09:39.364Z,52.40
2023-03-12T07:12:06.108Z,54.72
2023-03-12T07:14:32.637Z,47.17
2023-03-12T07:17:01.817Z,47.92
2023-03-12T07:19:30.355Z,49.33
2023-03-12T07:21:57.311Z,62.28
2023-03-12T07:24:24.786Z,61.75
2023-03-12T07:26:51.307Z,64.68
2023-03-12T07:29:18.012Z,63.83
2023-03-12T07:31:44.720Z,63.08
2023-03-12T07:34:11.505Z,71.70
2023-03-12T07:36:38.238Z,88.72
2023-03-12T07:39:04.832Z,88.75
2023-03-12T07:41:31.459Z,87.35
2023-03-12T07:43:59.308Z,83.75
2023-03-12T07:46:25.919Z,70.57
2023-03-12T07:48:53.116Z,79.47
2023-03-12T07:51:19.656Z,86.65
2023-03-12T07:53:46.163Z,74.85
2023-03-12T07:56:12.808Z,88.93
2023-03-12T07:58:39.649Z,89.88
2023-03-12T08:01:06.919Z,86.95
2023-03-12T08:03:33.982Z,93.80
2023-03-12T08:06:03.409Z,85.95
2023-03-12T08:08:31.277Z,91.03
2023-03-12T08:10:59.297Z,95.45
2023-03-12T08:13:26.293Z,95.50
2023-03-12T08:15:54.014Z,88.13
2023-03-12T08:18:21.250Z,82.60
2023-03-12T08:20:50.438Z,87.00
2023-03-12T08:23:17.009Z,90.95
2023-03-12T08:25:46.932Z,76.38
2023-03-12T08:28:14.416Z,81.80
2023-03-12T08:30:54.720Z,84.28
2023-03-12T08:33:21.950Z,87.38
2023-03-12T08:35:49.150Z,83.85
2023-03-12T08:38:15.796Z,83.40
2023-03-12T08:40:42.343Z,83.53
2023-03-12T08:43:08.929Z,77.10
2023-03-12T08:45:36.493Z,69.75
2023-03-12T08:48:06.873Z,64.15
2023-03-12T08:50:33.885Z,63.70
2023-03-12T08:53:00.446Z,53.85
2023-03-12T08:55:29.856Z,55.38
2023-03-12T08:57:56.809Z,53.58
2023-03-12T09:00:23.397Z,38.53
2023-03-12T09:02:52.120Z,43.08
2023-03-12T09:05:19.341Z,44.00
2023-03-12T09:07:45.940Z,47.05
2023-03-12T09:10:12.574Z,38.92
2023-03-12T09:12:39.183Z,35.17
2023-03-12T09:15:06.469Z,43.85
2023-03-12T09:17:33.215Z,36.80
2023-03-12T09:20:00.177Z,44.15
2023-03-12T09:22:26.731Z,40.47
2023-03-12T09:24:53.247Z,40.58
2023-03-12T09:27:19.893Z,43.80
2023-03-12T09:29:59.491Z,52.22
2023-03-12T09:32:27.639Z,35.67
2023-03-12T09:34:54.592Z,42.75
2023-03-12T09:37:23.960Z,35.35
2023-03-12T09:39:51.558Z,49.15
2023-03-12T09:42:27.710Z,40.58
2023-03-12T09:44:55.728Z,44.03
2023-03-12T09:47:29.946Z,40.42
2023-03-12T09:50:23.768Z,42.53
2023-03-12T09:53:02.403Z,47.03
2023-03-12T09:55:39.358Z,59.78
2023-03-12T09:58:13.334Z,40.58
2023-03-12T10:00:40.125Z,45.25
2023-03-12T10:03:12.751Z,48.88
2023-03-12T10:05:51.655Z,46.42
2023-03-12T10:08:27.154Z,40.42
2023-03-12T10:11:14.915Z,46.53
2023-03-12T10:13:57.682Z,44.42
2023-03-12T10:16:42.428Z,51.13
2023-03-12T10:19:31.776Z,51.03
2023-03-12T10:22:20.504Z,38.60
2023-03-12T10:24:54.743Z,53.58
2023-03-12T10:27:22.995Z,40.90
2023-03-12T10:29:51.029Z,38.85
2023-03-12T10:32:21.708Z,46.35
2023-03-12T10:34:55.341Z,40.13
2023-03-12T10:37:44.344Z,35.88
2023-03-12T10:40:16.554Z,48.58
2023-03-12T10:42:43.185Z,47.42
2023-03-12T10:45:09.644Z,52.85
2023-03-12T10:47:39.963Z,57.97
2023-03-12T10:50:19.737Z,54.88
2023-03-12T10:52:48.773Z,56.75
2023-03-12T10:55:29.720Z,42.17
2023-03-12T10:57:56.722Z,47.40
2023-03-12T11:00:28.245Z,52.60
2023-03-12T11:03:06.124Z,50.08
2023-03-12T11:05:45.309Z,54.75
2023-03-12T11:08:24.250Z,48.10
2023-03-12T11:10:50.835Z,47.75
2023-03-12T11:13:32.831Z,39.95
2023-03-12T11:16:04.254Z,42.28
2023-03-12T11:18:32.596Z,46.30
2023-03-12T11:21:11.365Z,58.17
2023-03-12T11:23:43.147Z,42.47
2023-03-12T11:26:22.123Z,42.85
2023-03-12T11:28:57.198Z,40.10
2023-03-12T11:31:31.240Z,50.85
2023-03-12T11:34:03.673Z,53.92
2023-03-12T11:36:55.497Z,42.00
2023-03-12T11:39:28.053Z,49.55
2023-03-12T11:42:06.888Z,45.90
2023-03-12T11:44:39.271Z,50.08
2023-03-12T11:47:20.338Z,51.33
2023-03-12T11:49:53.102Z,53.97
2023-03-12T11:52:52.573Z,45.20
2023-03-12T11:55:27.074Z,52.65
2023-03-12T11:58:02.748Z,47.67
2023-03-12T12:00:55.024Z,53.45
2023-03-12T12:03:35.229Z,46.47
2023-03-12T12:06:04.465Z,49.50
2023-03-12T12:08:52.769Z,49.42
2023-03-12T12:11:30.724Z,58.90
2023-03-12T12:14:13.455Z,61.00
2023-03-12T12:17:18.406Z,54.80
2023-03-12T12:19:55.636Z,46.90
2023-03-12T12:22:34.345Z,53.47
2023-03-12T12:25:12.845Z,45.65
2023-03-12T12:28:37.378Z,52.47
2023-03-12T12:31:18.902Z,54.58
2023-03-12T12:33:48.339Z,53.05
2023-03-12T12:36:15.039Z,39.22
2023-03-12T12:38:49.605Z,46.65
2023-03-12T12:41:18.656Z,47.78
2023-03-12T12:43:49.241Z,42.30
2023-03-12T12:46:22.297Z,49.80
2023-03-12T12:48:53.798Z,46.70
2023-03-12T12:51:23.280Z,46.50
2023-03-12T12:54:00.716Z,52.30
2023-03-12T12:56:33.071Z,34.88
2023-03-12T12:59:25.153Z,45.42
2023-03-12T13:01:55.082Z,45.03
2023-03-12T13:04:32.438Z,48.25
2023-03-12T13:07:14.210Z,48.30
2023-03-12T13:09:42.087Z,49.65
2023-03-12T13:12:26.919Z,52.35
2023-03-12T13:14:55.515Z,52.67
2023-03-12T13:17:25.770Z,42.10
2023-03-12T13:20:01.400Z,45.78
2023-03-12T13:22:37.629Z,48.33
2023-03-12T13:25:13.591Z,45.85
2023-03-12T13:27:42.628Z,53.60
2023-03-12T13:30:27.583Z,46.67
2023-03-12T13:32:57.201Z,54.22
2023-03-12T13:35:23.818Z,51.50
2023-03-12T13:37:53.311Z,49.38
2023-03-12T13:40:28.877Z,50.05
2023-03-12T13:43:34.154Z,45.42
2023-03-12T13:46:14.080Z,57.33
2023-03-12T13:48:45.899Z,46.40
2023-03-12T13:51:17.611Z,53.80
2023-03-12T13:53:48.952Z,45.33
2023-03-12T13:56:18.927Z,53.17
2023-03-12T13:58:54.950Z,53.60
2023-03-12T14:01:24.233Z,63.53
2023-03-12T14:03:55.266Z,55.00
2023-03-12T14:06:24.465Z,58.78
2023-03-12T14:09:24.233Z,52.20
2023-03-12T14:12:13.911Z,53.70
2023-03-12T14:14:58.335Z,58.58
2023-03-12T14:17:27.730Z,44.47
2023-03-12T14:20:17.286Z,53.92
2023-03-12T14:22:45.915Z,63.85
2023-03-12T14:25:45.489Z,50.88
2023-03-12T14:28:21.304Z,45.00
2023-03-12T14:31:10.112Z,55.00
2023-03-12T14:33:49.573Z,64.72
2023-03-12T14:36:19.222Z,58.45
2023-03-12T14:38:48.803Z,61.25
2023-03-12T14:41:23.042Z,59.42
2023-03-12T14:43:52.597Z,54.65
2023-03-12T14:46:23.533Z,62.00
2023-03-12T14:48:52.378Z,61.00
2023-03-12T14:51:27.396Z,60.00
2023-03-12T14:53:54.590Z,62.92
2023-03-12T14:56:30.622Z,60.75
2023-03-12T14:58:59.302Z,58.85
2023-03-12T15:01:33.483Z,62.83
2023-03-12T15:04:06.442Z,61.75
2023-03-12T15:06:32.904Z,54.20
2023-03-12T15:09:04.177Z,60.22
2023-03-12T15:11:32.774Z,59.13
2023-03-12T15:14:14.400Z,52.50
2023-03-12T15:16:42.818Z,56.42
2023-03-12T15:21:39.622Z,53.08
2023-03-12T15:24:06.885Z,55.90
2023-03-12T15:26:36.430Z,58.15
2023-03-12T15:29:28.672Z,63.15
2023-03-12T15:31:57.608Z,49.97
2023-03-12T15:34:32.214Z,61.80
2023-03-12T15:37:00.898Z,59.08
2023-03-12T15:42:00.738Z,59.83
2023-03-12T15:44:30.001Z,49.45
2023-03-12T15:47:15.621Z,58.63
2023-03-12T15:49:42.399Z,54.55
2023-03-12T15:52:18.044Z,59.90
2023-03-12T15:55:14.286Z,66.05
2023-03-12T15:57:48.121Z,59.90
2023-03-12T16:00:24.055Z,65.07
2023-03-12T16:03:02.430Z,76.47
2023-03-12T16:05:34.488Z,64.05
2023-03-12T16:08:21.168Z,68.07
2023-03-12T16:10:49.048Z,70.03
2023-03-12T16:13:17.501Z,82.20
2023-03-12T16:18:17.350Z,74.43
2023-03-12T16:20:44.340Z,76.72
2023-03-12T16:23:11.203Z,62.88
2023-03-12T16:25:38.614Z,64.30
2023-03-12T16:28:06.496Z,47.50
2023-03-12T16:30:36.140Z,47.35
2023-03-12T16:33:08.630Z,46.03
2023-03-12T16:35:35.612Z,43.15
2023-03-12T16:38:02.681Z,41.53
2023-03-12T16:40:34.350Z,39.42
2023-03-12T16:43:03.517Z,42.70
2023-03-12T16:45:31.504Z,30.60
2023-03-12T16:48:00.801Z,43.92
2023-03-12T16:50:27.655Z,38.13
2023-03-12T16:52:54.209Z,32.67
2023-03-12T16:55:22.560Z,36.05
2023-03-12T16:58:07.353Z,40.03
2023-03-12T17:00:34.367Z,36.28
2023-03-12T17:03:01.860Z,28.00
2023-03-12T17:05:29.696Z,34.13
2023-03-12T17:07:57.135Z,33.95
2023-03-12T17:10:24.542Z,26.63
2023-03-12T17:12:51.369Z,32.28
2023-03-12T17:15:26.358Z,23.52
2023-03-12T17:20:21.254Z,22.75
2023-03-12T17:25:23.371Z,23.33
2023-03-12T17:27:50.577Z,21.73
2023-03-12T17:30:17.571Z,25.08
2023-03-12T17:32:44.221Z,24.48
2023-03-12T17:35:11.275Z,24.10
2023-03-12T17:37:37.924Z,29.02
2023-03-12T17:40:09.436Z,26.70
2023-03-12T17:42:36.973Z,24.83
2023-03-12T17:45:08.172Z,32.08
2023-03-12T17:47:35.694Z,28.52
2023-03-12T17:50:03.129Z,25.85
2023-03-12T17:52:31.727Z,36.83
2023-03-12T17:54:58.257Z,23.15
2023-03-12T17:57:27.831Z,28.70
2023-03-12T17:59:54.338Z,29.88
2023-03-12T18:02:21.332Z,41.10
2023-03-12T18:04:47.959Z,36.78
2023-03-12T18:07:14.527Z,33.40
2023-03-12T18:09:41.066Z,34.60
2023-03-12T18:12:07.696Z,28.13
2023-03-12T18:14:34.684Z,32.97
2023-03-12T18:17:01.227Z,39.00
2023-03-12T18:19:29.368Z,25.92
2023-03-12T18:21:56.131Z,27.52
2023-03-12T18:24:22.690Z,34.80
2023-03-12T18:26:51.600Z,35.85
2023-03-12T18:29:18.255Z,36.15
2023-03-12T18:31:44.873Z,30.27
2023-03-12T18:34:11.452Z,38.47
2023-03-12T18:36:38.015Z,30.02
2023-03-12T18:39:06.168Z,34.45
2023-03-12T18:41:33.007Z,33.72
2023-03-12T18:44:00.122Z,33.70
2023-03-12T18:46:26.933Z,31.50
2023-03-12T18:48:53.604Z,24.23
2023-03-12T18:51:20.568Z,29.27
2023-03-12T18:53:47.219Z,30.65
2023-03-12T18:56:14.218Z,42.83
2023-03-12T18:58:40.713Z,26.50
2023-03-12T19:01:07.242Z,37.10
2023-03-12T19:03:36.326Z,37.17
2023-03-12T19:06:06.897Z,38.58
2023-03-12T19:08:34.122Z,31.58
2023-03-12T19:11:00.807Z,46.17
2023-03-12T19:13:27.461Z,34.70
2023-03-12T19:16:01.122Z,48.63
2023-03-12T19:18:28.400Z,37.53
2023-03-12T19:20:55.142Z,42.33
2023-03-12T19:23:22.492Z,32.78
2023-03-12T19:25:49.208Z,34.42
2023-03-12T19:28:15.805Z,34.30
2023-03-12T19:30:42.405Z,31.27
2023-03-12T19:33:09.064Z,35.30
2023-03-12T19:35:39.745Z,38.92
2023-03-12T19:38:06.372Z,31.35
2023-03-12T19:40:34.215Z,34.65
2023-03-12T19:43:01.762Z,33.17
2023-03-12T19:45:28.798Z,34.97
2023-03-12T19:47:55.407Z,38.95
2023-03-12T19:50:21.934Z,42.15
2023-03-12T19:52:48.896Z,38.10
2023-03-12T19:55:15.588Z,46.88
2023-03-12T19:57:42.125Z,31.52
2023-03-12T20:00:09.883Z,35.33
2023-03-12T20:02:37.564Z,40.55
2023-03-12T20:05:05.169Z,41.13
2023-03-12T20:07:32.308Z,32.40
2023-03-12T20:09:58.836Z,41.80
2023-03-12T20:12:25.468Z,29.27
2023-03-12T20:14:52.090Z,38.88
2023-03-12T20:17:18.678Z,31.33
2023-03-12T20:19:45.502Z,34.63
2023-03-12T20:22:12.075Z,37.25
2023-03-12T20:24:38.920Z,44.35
2023-03-12T20:27:05.479Z,30.90
2023-03-12T20:29:32.125Z,30.52
2023-03-12T20:31:58.750Z,37.92
2023-03-12T20:34:25.382Z,33.20
2023-03-12T20:36:52.140Z,37.30
2023-03-12T20:39:18.702Z,31.25
2023-03-12T20:41:45.188Z,42.83
2023-03-12T20:44:11.852Z,41.40
2023-03-12T20:46:38.371Z,36.35
2023-03-12T20:49:05.108Z,37.40
2023-03-12T20:51:31.747Z,34.17
2023-03-12T20:53:58.324Z,36.25
2023-03-12T20:56:24.836Z,38.50
2023-03-12T20:58:52.148Z,30.52
2023-03-12T21:01:18.726Z,33.40
2023-03-12T21:03:45.846Z,41.40
2023-03-12T21:06:12.345Z,41.65
2023-03-12T21:08:38.880Z,38.08
2023-03-12T21:11:06.720Z,38.20
2023-03-12T21:13:33.244Z,43.20
2023-03-12T21:15:59.749Z,38.33
2023-03-12T21:18:26.278Z,33.67
2023-03-12T21:20:53.013Z,38.25
2023-03-12T21:23:19.601Z,37.90
2023-03-12T21:25:46.249Z,44.22
2023-03-12T21:28:12.965Z,44.60
2023-03-12T21:30:39.739Z,47.60
2023-03-12T21:33:07.321Z,41.08
2023-03-12T21:35:34.021Z,41.72
2023-03-12T21:38:02.508Z,39.70
2023-03-12T21:40:29.175Z,48.88
2023-03-12T21:42:55.673Z,50.60
2023-03-12T21:45:22.170Z,47.22
2023-03-12T21:47:48.713Z,45.08
2023-03-12T21:50:15.167Z,42.70
2023-03-12T21:52:47.714Z,54.58
2023-03-12T21:55:14.808Z,45.38
2023-03-12T21:57:41.346Z,46.42
2023-03-12T22:00:14.000Z,55.13
2023-03-12T22:02:41.791Z,45.63
2023-03-12T22:05:08.854Z,47.10
2023-03-12T22:07:35.427Z,47.65
2023-03-12T22:10:02.557Z,56.58
2023-03-12T22:12:29.140Z,51.55
2023-03-12T22:14:55.672Z,47.85
2023-03-12T22:17:22.199Z,60.00
2023-03-12T22:19:48.835Z,43.53
2023-03-12T22:22:15.334Z,38.65
2023-03-12T22:24:41.882Z,59.75
2023-03-12T22:27:08.473Z,35.75
2023-03-12T22:29:35.186Z,53.72
2023-03-12T22:32:02.031Z,47.15
2023-03-12T22:34:29.672Z,45.28
2023-03-12T22:36:56.289Z,53.70
2023-03-12T22:39:22.801Z,53.88
2023-03-12T22:41:52.682Z,47.65
2023-03-12T22:44:19.433Z,48.13
2023-03-12T22:46:45.973Z,41.58
2023-03-12T22:49:12.556Z,46.72
2023-03-12T22:51:39.253Z,41.72
2023-03-12T22:54:05.821Z,42.13
2023-03-12T22:56:32.518Z,45.22
2023-03-12T22:58:59.049Z,49.72
2023-03-12T23:01:25.734Z,35.42
2023-03-12T23:03:52.734Z,34.33
2023-03-12T23:06:25.065Z,40.60
2023-03-12T23:08:52.123Z,37.75
2023-03-12T23:11:19.571Z,36.70
2023-03-12T23:13:46.872Z,38.60
2023-03-12T23:16:16.427Z,32.38
2023-03-12T23:18:43.001Z,38.13
2023-03-12T23:21:12.135Z,35.28
2023-03-12T23:23:39.573Z,35.92
2023-03-12T23:26:06.557Z,42.97
2023-03-12T23:28:33.130Z,43.60
2023-03-12T23:31:06.283Z,34.90
2023-03-12T23:33:34.026Z,40.95
2023-03-12T23:36:03.066Z,40.05
2023-03-12T23:38:31.045Z,28.05
2023-03-12T23:41:02.230Z,38.78
2023-03-12T23:43:28.910Z,44.25
2023-03-12T23:45:57.517Z,43.47
2023-03-12T23:48:25.308Z,42.03
2023-03-12T23:50:51.918Z,32.53
2023-03-12T23:53:18.449Z,48.92
2023-03-12T23:55:54.318Z,51.83
2023-03-12T23:58:20.811Z,34.22
